createdAt,value
2023-06-10T00:01:20.877Z,18.11
2023-06-10T00:06:25.725Z,17.99
2023-06-10T00:11:29.015Z,17.90
2023-06-10T00:16:32.326Z,17.80
2023-06-10T00:21:38.797Z,17.69
2023-06-10T00:26:43.224Z,17.55
2023-06-10T00:31:47.442Z,17.40
2023-06-10T00:36:50.816Z,17.29
2023-06-10T00:41:54.186Z,17.23
2023-06-10T00:46:57.729Z,17.13
2023-06-10T00:52:01.008Z,17.06
2023-06-10T00:57:05.671Z,16.98
2023-06-10T01:02:10.617Z,16.89
2023-06-10T01:07:30.107Z,16.80
2023-06-10T01:12:50.404Z,16.70
2023-06-10T01:17:59.496Z,16.62
2023-06-10T01:23:04.472Z,16.54
2023-06-10T01:28:28.609Z,16.44
2023-06-10T01:33:37.029Z,16.35
2023-06-10T01:38:44.877Z,16.28
2023-06-10T01:43:49.211Z,16.26
2023-06-10T01:48:52.453Z,16.25
2023-06-10T01:53:55.722Z,16.17
2023-06-10T01:59:00.521Z,16.03
2023-06-10T02:04:04.145Z,15.98
2023-06-10T02:09:07.620Z,15.93
2023-06-10T02:14:11.111Z,15.87
2023-06-10T02:19:15.576Z,15.80
2023-06-10T02:24:19.299Z,15.73
2023-06-10T02:29:22.665Z,15.69
2023-06-10T02:34:26.227Z,15.65
2023-06-10T02:39:29.911Z,15.65
2023-06-10T02:44:33.240Z,15.65
2023-06-10T02:49:37.082Z,15.66
2023-06-10T02:54:40.973Z,15.70
2023-06-10T02:59:44.690Z,15.70
2023-06-10T03:04:48.922Z,15.65
2023-06-10T03:09:52.268Z,15.61
2023-06-10T03:14:55.455Z,15.54
2023-06-10T03:19:58.767Z,15.54
2023-06-10T03:25:02.176Z,15.46
2023-06-10T03:30:06.616Z,15.46
2023-06-10T03:35:10.316Z,15.55
2023-06-10T03:40:14.049Z,15.53
2023-06-10T03:45:17.724Z,15.53
2023-06-10T03:50:21.189Z,15.63
2023-06-10T03:55:24.820Z,15.72
2023-06-10T04:00:28.008Z,15.78
2023-06-10T04:05:31.591Z,15.76
2023-06-10T04:10:34.963Z,15.84
2023-06-10T04:15:38.144Z,16.00
2023-06-10T04:20:41.484Z,16.22
2023-06-10T04:25:44.782Z,16.40
2023-06-10T04:30:48.525Z,16.55
2023-06-10T04:35:52.026Z,16.71
2023-06-10T04:40:55.319Z,16.88
2023-06-10T04:45:58.927Z,17.02
2023-06-10T04:51:02.247Z,17.29
2023-06-10T04:56:06.092Z,17.33
2023-06-10T05:01:09.792Z,17.48
2023-06-10T05:06:12.931Z,17.63
2023-06-10T05:11:16.204Z,17.81
2023-06-10T05:16:19.660Z,17.80
2023-06-10T05:21:23.136Z,17.80
2023-06-10T05:26:26.674Z,18.04
2023-06-10T05:31:30.014Z,18.31
2023-06-10T05:36:33.906Z,18.39
2023-06-10T05:41:37.812Z,18.34
2023-06-10T05:46:41.129Z,18.43
2023-06-10T05:51:44.497Z,18.58
2023-06-10T05:56:47.872Z,18.59
2023-06-10T06:01:51.587Z,18.75
2023-06-10T06:06:54.900Z,18.92
2023-06-10T06:11:58.295Z,19.10
2023-06-10T06:17:01.644Z,19.09
2023-06-10T06:22:05.430Z,19.36
2023-06-10T06:27:08.750Z,19.69
2023-06-10T06:32:11.951Z,19.82
2023-06-10T06:37:15.781Z,19.78
2023-06-10T06:42:19.710Z,19.73
2023-06-10T06:47:23.213Z,19.86
2023-06-10T06:52:28.638Z,19.95
2023-06-10T06:57:36.734Z,20.08
2023-06-10T07:02:40.657Z,20.21
2023-06-10T07:07:44.763Z,20.30
2023-06-10T07:12:48.008Z,20.55
2023-06-10T07:17:51.850Z,20.65
2023-06-10T07:22:55.404Z,20.74
2023-06-10T07:27:59.065Z,20.91
2023-06-10T07:33:04.017Z,21.13
2023-06-10T07:38:07.418Z,21.29
2023-06-10T07:43:10.798Z,21.48
2023-06-10T07:48:14.448Z,21.63
2023-06-10T07:53:17.737Z,21.66
2023-06-10T07:58:21.293Z,21.79
2023-06-10T08:03:24.755Z,21.71
2023-06-10T08:08:28.269Z,21.96
2023-06-10T08:13:31.508Z,22.00
2023-06-10T08:18:35.430Z,22.02
2023-06-10T08:23:38.763Z,22.11
2023-06-10T08:28:42.281Z,22.21
2023-06-10T08:33:45.864Z,22.18
2023-06-10T08:38:49.199Z,22.26
2023-06-10T08:44:29.164Z,22.17
2023-06-10T08:49:37.982Z,22.22
2023-06-10T08:54:45.035Z,22.50
2023-06-10T08:59:49.582Z,22.64
2023-06-10T09:04:53.445Z,22.63
2023-06-10T09:09:57.637Z,22.73
2023-06-10T09:15:03.581Z,22.96
2023-06-10T09:20:11.061Z,23.05
2023-06-10T09:25:15.214Z,23.00
2023-06-10T09:30:35.475Z,23.30
2023-06-10T09:35:47.049Z,23.47
2023-06-10T09:40:55.122Z,23.18
2023-06-10T09:45:58.702Z,23.64
2023-06-10T09:51:02.181Z,23.68
2023-06-10T09:56:08.783Z,23.97
2023-06-10T10:01:16.253Z,23.99
2023-06-10T10:06:22.112Z,23.88
2023-06-10T10:11:27.503Z,23.98
2023-06-10T10:16:40.375Z,24.30
2023-06-10T10:21:54.223Z,24.38
2023-06-10T10:27:00.528Z,24.33
2023-06-10T10:32:06.353Z,24.33
2023-06-10T10:37:09.819Z,24.53
2023-06-10T10:42:15.136Z,24.63
2023-06-10T10:47:22.547Z,24.60
2023-06-10T10:52:26.964Z,24.83
2023-06-10T10:57:31.423Z,24.74
2023-06-10T11:02:47.921Z,24.56
2023-06-10T11:07:59.316Z,24.69
2023-06-10T11:13:10.821Z,25.03
2023-06-10T11:18:15.474Z,25.17
2023-06-10T11:23:32.871Z,25.29
2023-06-10T11:28:36.316Z,25.46
2023-06-10T11:33:41.125Z,25.96
2023-06-10T11:38:45.501Z,26.37
2023-06-10T11:43:48.906Z,26.02
2023-06-10T11:48:59.313Z,25.66
2023-06-10T11:54:03.296Z,26.08
2023-06-10T11:59:08.975Z,26.01
2023-06-10T12:04:17.745Z,25.97
2023-06-10T12:09:27.992Z,26.28
2023-06-10T12:15:00.025Z,26.44
2023-06-10T12:20:29.922Z,26.46
2023-06-10T12:25:33.154Z,26.44
2023-06-10T12:30:36.761Z,26.92
2023-06-10T12:35:52.691Z,26.40
2023-06-10T12:41:02.761Z,26.49
2023-06-10T12:46:15.328Z,26.99
2023-06-10T12:51:19.945Z,26.92
2023-06-10T12:56:23.604Z,26.96
2023-06-10T13:01:28.512Z,27.41
2023-06-10T13:06:33.709Z,27.67
2023-06-10T13:11:38.077Z,27.37
2023-06-10T13:16:41.853Z,27.16
2023-06-10T13:21:45.371Z,27.28
2023-06-10T13:26:49.156Z,27.53
2023-06-10T13:31:52.897Z,27.83
2023-06-10T13:36:56.273Z,27.67
2023-06-10T13:42:00.182Z,27.50
2023-06-10T13:47:04.672Z,27.97
2023-06-10T13:52:22.702Z,28.27
2023-06-10T13:57:26.047Z,28.12
2023-06-10T14:02:29.558Z,27.92
2023-06-10T14:07:33.164Z,27.80
2023-06-10T14:12:36.943Z,28.20
2023-06-10T14:17:40.944Z,28.42
2023-06-10T14:22:44.385Z,28.12
2023-06-10T14:27:48.510Z,28.08
2023-06-10T14:32:51.749Z,27.95
2023-06-10T14:37:55.122Z,27.87
2023-06-10T14:42:58.434Z,27.75
2023-06-10T14:48:01.814Z,27.85
2023-06-10T14:53:05.262Z,28.01
2023-06-10T14:58:08.505Z,28.08
2023-06-10T15:03:11.958Z,27.92
2023-06-10T15:08:16.134Z,27.46
2023-06-10T15:13:19.538Z,27.59
2023-06-10T15:18:22.776Z,27.50
2023-06-10T15:23:26.164Z,27.42
2023-06-10T15:28:29.470Z,27.69
2023-06-10T15:33:32.804Z,28.41
2023-06-10T15:38:36.209Z,28.42
2023-06-10T15:43:39.631Z,27.91
2023-06-10T15:48:42.722Z,28.01
2023-06-10T15:53:47.268Z,28.32
2023-06-10T15:58:50.486Z,28.03
2023-06-10T16:03:54.053Z,27.86
2023-06-10T16:08:58.453Z,27.68
2023-06-10T16:14:01.742Z,27.67
2023-06-10T16:19:05.058Z,27.66
2023-06-10T16:24:09.797Z,27.19
2023-06-10T16:29:14.129Z,26.94
2023-06-10T16:34:18.208Z,26.84
2023-06-10T16:39:21.674Z,26.69
2023-06-10T16:44:25.004Z,26.80
2023-06-10T16:49:28.282Z,26.84
2023-06-10T16:54:31.805Z,26.78
2023-06-10T16:59:35.356Z,26.20
2023-06-10T17:04:38.730Z,26.02
2023-06-10T17:09:42.056Z,25.78
2023-06-10T17:14:46.078Z,25.74
2023-06-10T17:19:51.185Z,25.55
2023-06-10T17:24:54.956Z,25.56
2023-06-10T17:29:58.259Z,25.21
2023-06-10T17:35:01.584Z,24.98
2023-06-10T17:40:06.120Z,24.96
2023-06-10T17:45:10.419Z,24.74
2023-06-10T17:50:15.740Z,24.55
2023-06-10T17:55:20.659Z,24.26
2023-06-10T18:00:25.090Z,23.78
2023-06-10T18:05:28.802Z,23.19
2023-06-10T18:10:32.142Z,22.82
2023-06-10T18:15:37.743Z,22.43
2023-06-10T18:20:41.399Z,22.08
2023-06-10T18:25:44.813Z,21.82
2023-06-10T18:30:48.231Z,21.60
2023-06-10T18:35:51.871Z,21.34
2023-06-10T18:40:55.160Z,21.17
2023-06-10T18:45:59.682Z,21.04
2023-06-10T18:51:03.024Z,20.93
2023-06-10T18:56:06.442Z,20.71
2023-06-10T19:01:10.299Z,20.55
2023-06-10T19:06:13.784Z,20.43
2023-06-10T19:11:17.813Z,20.28
2023-06-10T19:16:21.565Z,20.15
2023-06-10T19:21:25.133Z,19.97
2023-06-10T19:26:28.487Z,19.74
2023-06-10T19:31:31.994Z,19.53
2023-06-10T19:36:35.798Z,19.45
2023-06-10T19:41:40.065Z,19.33
2023-06-10T19:46:43.568Z,19.15
2023-06-10T19:51:49.309Z,19.03
2023-06-10T19:56:52.641Z,18.87
2023-06-10T20:01:56.450Z,18.74
2023-06-10T20:07:02.010Z,18.63
2023-06-10T20:12:06.749Z,18.49
2023-06-10T20:17:10.055Z,18.35
2023-06-10T20:22:13.293Z,18.21
2023-06-10T20:27:17.128Z,18.14
2023-06-10T20:32:21.657Z,18.05
2023-06-10T20:37:26.063Z,17.92
2023-06-10T20:42:29.553Z,17.82
2023-06-10T20:47:34.203Z,17.73
2023-06-10T20:52:37.980Z,17.60
2023-06-10T20:57:41.885Z,17.49
2023-06-10T21:02:45.096Z,17.37
2023-06-10T21:07:48.921Z,17.20
2023-06-10T21:12:52.211Z,17.09
2023-06-10T21:17:55.703Z,16.95
2023-06-10T21:22:59.282Z,16.86
2023-06-10T21:28:03.063Z,16.75
2023-06-10T21:33:06.676Z,16.69
2023-06-10T21:38:10.116Z,16.60
2023-06-10T21:43:13.433Z,16.52
2023-06-10T21:48:16.980Z,16.38
2023-06-10T21:53:20.253Z,16.28
2023-06-10T21:58:23.779Z,16.22
2023-06-10T22:03:27.932Z,16.11
2023-06-10T22:08:31.650Z,16.01
2023-06-10T22:13:34.935Z,15.88
2023-06-10T22:18:38.024Z,15.81
2023-06-10T22:23:41.376Z,15.70
2023-06-10T22:28:44.746Z,15.63
2023-06-10T22:33:48.083Z,15.54
2023-06-10T22:38:51.504Z,15.44
2023-06-10T22:43:55.609Z,15.36
2023-06-10T22:48:59.107Z,15.27
2023-06-10T22:54:02.785Z,15.19
2023-06-10T22:59:06.285Z,15.11
2023-06-10T23:04:09.650Z,15.03
2023-06-10T23:09:14.555Z,14.93
2023-06-10T23:14:17.828Z,14.86
2023-06-10T23:19:22.919Z,14.75
2023-06-10T23:24:30.591Z,14.66
2023-06-10T23:29:37.240Z,14.52
2023-06-10T23:34:45.415Z,14.41
2023-06-10T23:39:49.638Z,14.34
2023-06-10T23:44:53.801Z,14.28
2023-06-10T23:49:56.983Z,14.23
2023-06-10T23:55:00.420Z,14.13
